Time;durP1;ratioP1;P1;durP2;ratioP2;P2;SDS_P1;SDS_P2;PMS_P1;PMS_P2;Temp;Humidity;BMP_temperature;BMP_pressure;BME280_temperature;BME280_humidity;BME280_pressure;Samples;Min_cycle;Max_cycle;Signal;HPM_P1;HPM_P2
2023/02/03 16:50:57;;;;;;;;;4.75;4.75;;;;;12.15;61.79;102951.34;4962941;28;45388;-49
2023/02/03 16:53:31;;;;;;;;;6.25;5.00;;;;;12.08;62.02;102933.72;4963222;28;45433;-54
2023/02/03 16:55:59;;;;;;;;;5.25;4.00;;;;;12.14;61.93;102950.47;4959158;28;45441;-54
2023/02/03 16:58:24;;;;;;;;;6.00;6.00;;;;;12.15;61.92;102935.53;4953150;28;45425;-55
2023/02/03 17:00:51;;;;;;;;;3.50;3.50;;;;;12.15;61.73;102948.72;4962507;28;45389;-52
2023/02/03 17:03:20;;;;;;;;;7.00;6.00;;;;;12.14;61.81;102946.97;4962966;28;45229;-53
2023/02/03 17:05:47;;;;;;;;;5.75;5.50;;;;;12.15;61.77;102951.34;4962634;28;45404;-53
2023/02/03 17:08:14;;;;;;;;;4.00;3.75;;;;;12.18;61.86;102946.16;4962912;28;45428;-51
2023/02/03 17:10:41;;;;;;;;;5.00;4.75;;;;;12.16;62.10;102947.88;4945306;28;45290;-53
2023/02/03 17:13:07;;;;;;;;;8.00;6.00;;;;;12.16;61.61;102947.88;4962431;28;45235;-49
2023/02/03 17:15:38;;;;;;;;;4.25;3.75;;;;;12.15;61.73;102947.00;4944925;28;45376;-48
2023/02/03 17:18:03;;;;;;;;;5.00;5.00;;;;;12.17;61.85;102939.97;4962976;28;46577;-51
2023/02/03 17:20:29;;;;;;;;;4.50;4.25;;;;;12.10;62.08;102924.06;4968263;28;45287;-48
2023/02/03 17:22:54;;;;;;;;;4.50;4.25;;;;;12.19;61.87;102945.28;4963012;28;45292;-50
2023/02/03 17:25:20;;;;;;;;;13.75;12.75;;;;;12.18;61.92;102948.78;4961175;28;45308;-47
2023/02/03 17:27:46;;;;;;;;;4.00;3.00;;;;;12.17;61.76;102942.59;4943567;28;46925;-51
2023/02/03 17:30:12;;;;;;;;;3.00;3.00;;;;;12.16;62.01;102948.78;4959705;28;45430;-51
2023/02/03 17:32:37;;;;;;;;;5.00;4.00;;;;;12.16;61.77;102954.03;4943113;28;45944;-50
2023/02/03 17:35:03;;;;;;;;;3.00;3.00;;;;;12.14;61.91;102952.25;4962260;28;45641;-52
2023/02/03 17:37:31;;;;;;;;;4.25;4.25;;;;;12.16;61.88;102939.97;4962217;28;45359;-52
2023/02/03 17:39:57;;;;;;;;;6.00;5.50;;;;;12.18;61.90;102933.84;4962420;28;45470;-51
2023/02/03 17:42:22;;;;;;;;;3.00;3.00;;;;;12.17;61.86;102937.34;4962631;28;45437;-50
2023/02/03 17:44:47;;;;;;;;;2.50;2.00;;;;;12.18;61.73;102941.75;4961925;28;45228;-51
2023/02/03 17:47:13;;;;;;;;;4.00;4.00;;;;;12.17;61.81;102947.00;4961481;28;53393;-51
2023/02/03 17:49:38;;;;;;;;;6.50;5.50;;;;;12.16;61.87;102955.78;4962065;28;51456;-50
2023/02/03 17:52:03;;;;;;;;;6.00;4.75;;;;;12.15;61.97;102947.00;4962561;28;45425;-51
2023/02/03 17:54:30;;;;;;;;;7.00;6.00;;;;;12.16;61.95;102947.88;4962258;28;45184;-53
2023/02/03 17:56:55;;;;;;;;;4.75;4.75;;;;;12.15;62.13;102947.00;4962008;28;46177;-50
2023/02/03 17:59:21;;;;;;;;;6.50;5.00;;;;;12.14;61.79;102945.22;4961698;28;45196;-48
2023/02/03 18:01:46;;;;;;;;;7.00;5.25;;;;;12.15;61.65;102938.19;4962438;28;45304;-47
2023/02/03 18:04:11;;;;;;;;;6.00;5.00;;;;;12.11;61.94;102944.28;4951836;28;45483;-55
2023/02/03 18:06:37;;;;;;;;;6.50;6.00;;;;;12.13;61.74;102948.72;4952131;28;45852;-56
2023/02/03 18:09:08;;;;;;;;;6.25;6.00;;;;;12.05;61.91;102937.19;4960567;28;45366;-48
2023/02/03 18:11:35;;;;;;;;;7.75;6.00;;;;;12.11;61.73;102952.19;4961495;28;45340;-49
2023/02/03 18:14:01;;;;;;;;;5.00;4.00;;;;;12.09;61.82;102952.16;4956879;28;45438;-46
2023/02/03 18:16:31;;;;;;;;;7.75;6.75;;;;;12.11;61.80;102958.38;4961557;28;46329;-45
2023/02/03 18:18:56;;;;;;;;;6.50;6.50;;;;;12.13;61.68;102963.66;4961671;28;45452;-49
2023/02/03 18:21:23;;;;;;;;;5.00;4.00;;;;;12.13;62.00;102968.91;4953783;28;45601;-49
2023/02/03 18:23:50;;;;;;;;;6.00;6.00;;;;;12.12;61.86;102964.50;4961726;28;46566;-51
2023/02/03 18:26:17;;;;;;;;;11.25;5.25;;;;;12.13;61.77;102971.56;4943914;28;47118;-47
2023/02/03 18:28:43;;;;;;;;;7.50;6.25;;;;;12.12;61.86;102964.50;4961439;28;45820;-48
2023/02/03 18:31:16;;;;;;;;;8.00;7.75;;;;;12.12;61.96;102964.50;4961593;28;45335;-47
2023/02/03 18:33:43;;;;;;;;;8.75;8.00;;;;;12.15;61.58;102967.16;4961173;28;45445;-47
2023/02/03 18:36:10;;;;;;;;;6.50;6.50;;;;;12.15;61.70;102977.72;4961152;28;46117;-46
2023/02/03 18:38:36;;;;;;;;;10.00;9.00;;;;;12.14;61.62;102981.25;4958982;28;45589;-48
2023/02/03 18:41:31;;;;;;;;;5.00;5.00;;;;;12.19;61.78;102987.47;4961342;28;45339;-50
2023/02/03 18:43:56;;;;;;;;;7.00;6.00;;;;;12.20;61.45;102978.69;4943665;28;45449;-53
2023/02/03 18:46:25;;;;;;;;;11.75;8.00;;;;;12.18;61.68;102976.00;4961362;28;45426;-47
2023/02/03 18:48:51;;;;;;;;;11.00;8.00;;;;;12.14;61.50;102975.97;4955585;28;45539;-46
2023/02/03 18:51:19;;;;;;;;;9.00;7.50;;;;;12.17;61.70;102982.16;4960731;28;45208;-47
2023/02/03 18:53:45;;;;;;;;;3.75;3.00;;;;;12.19;61.41;102987.47;4950403;28;45536;-47
2023/02/03 18:56:23;;;;;;;;;10.00;9.00;;;;;12.17;61.31;102997.09;4960796;28;46145;-48
2023/02/03 18:58:48;;;;;;;;;11.00;8.25;;;;;12.18;61.40;102998.88;4941346;28;45394;-50
2023/02/03 19:01:28;;;;;;;;;6.50;6.50;;;;;12.18;61.69;103004.13;4958545;28;45240;-47
2023/02/03 19:03:58;;;;;;;;;8.50;6.75;;;;;12.19;61.54;103008.56;4956142;28;45400;-49
2023/02/03 19:06:24;;;;;;;;;7.50;6.00;;;;;12.21;61.38;103004.16;4959825;28;45424;-49
2023/02/03 19:08:50;;;;;;;;;7.00;7.00;;;;;12.22;61.43;103000.66;4960958;28;45239;-49
2023/02/03 19:11:16;;;;;;;;;8.00;8.00;;;;;12.24;61.71;102996.31;4960925;28;45223;-45
2023/02/03 19:13:42;;;;;;;;;11.00;10.50;;;;;12.21;61.28;103004.16;4960564;28;45720;-49
2023/02/03 19:16:11;;;;;;;;;7.25;7.25;;;;;12.25;61.13;103006.00;4960986;28;48036;-47
2023/02/03 19:18:37;;;;;;;;;10.25;8.50;;;;;12.26;61.29;103006.88;4960815;28;45518;-49
2023/02/03 19:21:02;;;;;;;;;10.25;8.50;;;;;12.23;61.27;103005.09;4961117;28;45315;-47
2023/02/03 19:23:28;;;;;;;;;12.75;9.75;;;;;12.24;61.39;103008.59;4960360;28;46256;-49
2023/02/03 19:25:53;;;;;;;;;9.25;9.00;;;;;12.26;61.58;103020.06;4959463;28;46196;-48
2023/02/03 19:28:19;;;;;;;;;10.25;8.50;;;;;12.25;61.31;103015.66;4960574;28;45334;-49
2023/02/03 19:30:45;;;;;;;;;10.50;10.00;;;;;12.30;61.28;103022.78;4960748;28;45365;-45
2023/02/03 19:33:10;;;;;;;;;12.25;11.00;;;;;12.31;61.68;103008.75;4947757;28;45411;-51
2023/02/03 19:35:35;;;;;;;;;6.25;5.00;;;;;12.33;61.31;103016.66;4960870;28;46202;-45
2023/02/03 19:38:01;;;;;;;;;12.00;11.00;;;;;12.35;61.41;103015.81;4942435;28;45492;-45
2023/02/03 19:40:27;;;;;;;;;12.50;10.00;;;;;12.37;61.23;103010.56;4960714;28;45258;-47
2023/02/03 19:42:53;;;;;;;;;10.25;9.25;;;;;12.39;61.42;103024.66;4960481;28;45291;-48
2023/02/03 19:45:18;;;;;;;;;12.25;9.50;;;;;12.34;61.36;103018.44;4959910;28;46105;-46
2023/02/03 19:47:44;;;;;;;;;9.25;8.00;;;;;12.35;61.28;103020.19;4960404;28;45405;-49
2023/02/03 19:50:10;;;;;;;;;5.25;5.25;;;;;12.37;61.56;103022.88;4960879;28;45307;-47
2023/02/03 19:52:35;;;;;;;;;11.50;10.75;;;;;12.38;61.61;103014.97;4960488;28;45523;-47
2023/02/03 19:55:01;;;;;;;;;13.00;12.00;;;;;12.37;61.50;103020.25;4960350;28;47150;-45
2023/02/03 19:57:26;;;;;;;;;9.25;8.75;;;;;12.37;61.55;103025.50;4952864;28;45472;-48
2023/02/03 19:59:51;;;;;;;;;12.75;12.00;;;;;12.37;61.56;103030.78;4960223;28;45226;-49
2023/02/03 20:02:17;;;;;;;;;11.75;10.00;;;;;12.38;61.37;103025.53;4959068;28;45335;-47
2023/02/03 20:04:42;;;;;;;;;9.00;8.00;;;;;12.38;61.42;103022.88;4960209;28;46292;-48
2023/02/03 20:07:09;;;;;;;;;12.25;10.75;;;;;12.38;61.57;103028.16;4942902;28;45779;-49
2023/02/03 20:09:34;;;;;;;;;20.00;18.50;;;;;12.39;61.42;103032.56;4961153;28;45331;-47
2023/02/03 20:11:59;;;;;;;;;10.00;9.00;;;;;12.39;61.32;103034.31;4963315;28;45433;-46
2023/02/03 20:14:25;;;;;;;;;10.50;10.25;;;;;12.40;61.58;103041.34;4963545;28;46693;-49
2023/02/03 20:16:51;;;;;;;;;12.00;9.25;;;;;12.41;61.51;103038.75;4962846;28;45232;-47
2023/02/03 20:19:17;;;;;;;;;9.75;8.75;;;;;12.40;61.65;103037.00;4963700;28;45307;-49
2023/02/03 20:21:44;;;;;;;;;12.00;10.00;;;;;12.41;61.46;103037.88;4963426;28;45388;-49
2023/02/03 20:24:09;;;;;;;;;8.00;7.75;;;;;12.38;61.23;103038.72;4963485;28;45450;-48
2023/02/03 20:26:34;;;;;;;;;13.75;12.25;;;;;12.38;61.61;103041.34;4963223;28;45526;-48
2023/02/03 20:29:00;;;;;;;;;10.75;9.25;;;;;12.34;61.70;103039.53;4963462;28;45362;-51
2023/02/03 20:31:25;;;;;;;;;20.00;17.00;;;;;12.34;61.50;103047.44;4961869;28;52780;-47
2023/02/03 20:33:52;;;;;;;;;6.75;6.75;;;;;12.33;61.28;103046.53;4951567;28;45325;-46
2023/02/03 20:36:17;;;;;;;;;9.25;8.00;;;;;12.33;61.36;103048.31;4963261;28;45314;-49
2023/02/03 20:38:44;;;;;;;;;13.75;11.50;;;;;12.31;61.15;103047.38;4963437;28;45425;-48
2023/02/03 20:41:11;;;;;;;;;4.75;1.75;;;;;12.29;61.56;103047.38;4945751;28;45449;-46
2023/02/03 20:43:37;;;;;;;;;6.75;6.75;;;;;12.30;61.49;103046.50;4962959;28;46192;-48
2023/02/03 20:46:09;;;;;;;;;15.00;13.25;;;;;12.31;61.31;103052.66;4962768;28;45489;-50
2023/02/03 20:48:34;;;;;;;;;40.25;32.75;;;;;12.29;61.26;103055.28;4960406;28;45353;-48
2023/02/03 20:51:00;;;;;;;;;8.25;8.25;;;;;12.31;61.15;103057.94;4956000;28;45584;-49
2023/02/03 20:53:25;;;;;;;;;9.50;8.00;;;;;12.33;61.20;103057.09;4963185;28;45415;-45
2023/02/03 20:55:56;;;;;;;;;7.25;6.00;;;;;12.34;61.36;103045.69;4958612;28;45243;-45
2023/02/03 20:58:29;;;;;;;;;10.75;8.00;;;;;12.33;61.41;103051.81;4961917;28;45389;-47
2023/02/03 21:00:58;;;;;;;;;11.25;8.75;;;;;12.33;61.27;103051.81;4962568;28;45424;-45
2023/02/03 21:06:13;;;;;;;;;8.50;7.00;;;;;12.31;61.19;103065.84;4950907;28;45209;-50
2023/02/03 21:08:39;;;;;;;;;8.00;7.50;;;;;12.29;61.15;103054.38;4962387;28;45390;-47
2023/02/03 21:11:10;;;;;;;;;6.50;6.00;;;;;12.29;60.91;103060.53;4962709;28;45366;-44
2023/02/03 21:13:37;;;;;;;;;8.50;6.25;;;;;12.28;61.07;103042.94;4925751;28;46112;-49
2023/02/03 21:16:15;;;;;;;;;7.25;6.00;;;;;12.30;60.90;103049.16;4963027;28;45512;-46
2023/02/03 21:18:54;;;;;;;;;5.00;5.00;;;;;12.30;61.14;103061.41;4961910;28;45397;-47
2023/02/03 21:21:28;;;;;;;;;6.25;6.00;;;;;12.30;61.23;103051.78;4954678;28;45389;-49
2023/02/03 21:23:53;;;;;;;;;8.00;6.00;;;;;12.30;61.31;103064.97;4950235;28;47280;-49
2023/02/03 21:26:32;;;;;;;;;7.50;4.00;;;;;12.32;61.00;103054.44;4962458;28;45236;-49
2023/02/03 21:29:00;;;;;;;;;8.25;5.25;;;;;12.30;61.24;103050.88;4962658;28;45406;-46
2023/02/03 21:31:28;;;;;;;;;3.25;3.25;;;;;12.28;61.16;103052.63;4961363;28;45549;-50
2023/02/03 21:33:56;;;;;;;;;5.00;5.00;;;;;12.31;61.12;103044.75;4950687;28;46304;-49
2023/02/03 21:36:27;;;;;;;;;4.00;4.00;;;;;12.29;61.13;103063.19;4962471;28;45251;-47
2023/02/03 21:38:54;;;;;;;;;4.00;4.00;;;;;12.26;61.00;103055.22;4962533;28;45334;-45
2023/02/03 21:41:22;;;;;;;;;17.50;16.00;;;;;12.25;61.22;103056.09;4962188;28;45291;-50
2023/02/03 21:43:55;;;;;;;;;15.25;13.00;;;;;12.25;61.01;103061.38;4961857;28;46275;-47
2023/02/03 21:46:41;;;;;;;;;14.25;13.50;;;;;12.25;61.23;103052.56;4923586;28;45262;-50
2023/02/03 21:49:14;;;;;;;;;8.25;8.00;;;;;12.24;61.20;103051.69;4922754;28;45390;-45
2023/02/03 21:51:40;;;;;;;;;5.50;5.50;;;;;12.25;61.16;103049.91;4916179;28;45607;-46
2023/02/03 21:54:29;;;;;;;;;5.75;5.00;;;;;12.27;61.02;103050.84;4921962;28;46457;-49
2023/02/03 21:56:55;;;;;;;;;9.00;7.75;;;;;12.25;60.99;103058.72;4918066;28;45371;-48
2023/02/03 21:59:25;;;;;;;;;8.00;6.00;;;;;12.24;61.23;103067.50;4915792;28;45383;-50
2023/02/03 22:01:51;;;;;;;;;7.00;7.00;;;;;12.25;61.20;103069.28;4915760;28;45540;-49
2023/02/03 22:04:17;;;;;;;;;7.25;6.50;;;;;12.27;61.20;103064.03;4922882;28;46639;-48
2023/02/03 22:06:45;;;;;;;;;5.75;5.75;;;;;12.27;61.17;103056.13;4934984;28;45163;-44
2023/02/03 22:09:12;;;;;;;;;8.75;7.50;;;;;12.28;60.79;103057.91;4922317;28;45332;-46
2023/02/03 22:11:38;;;;;;;;;7.00;6.50;;;;;12.28;61.07;103053.50;4923097;28;45193;-45
2023/02/03 22:14:03;;;;;;;;;5.50;3.75;;;;;12.28;61.12;103064.03;4922681;28;46181;-48
2023/02/03 22:16:28;;;;;;;;;6.00;6.00;;;;;12.29;61.14;103068.47;4923362;28;45385;-48
2023/02/03 22:18:54;;;;;;;;;6.50;6.50;;;;;12.28;60.93;103068.44;4923593;28;45455;-45
2023/02/03 22:21:19;;;;;;;;;6.25;6.00;;;;;12.27;61.18;103057.00;4916528;28;45325;-49
2023/02/03 22:23:46;;;;;;;;;7.00;7.00;;;;;12.26;61.28;103060.47;4923068;28;46200;-48
2023/02/03 22:26:13;;;;;;;;;8.50;7.00;;;;;12.22;61.12;103053.41;4923368;28;45307;-48
2023/02/03 22:28:38;;;;;;;;;8.50;7.25;;;;;12.16;61.03;103050.66;4922888;28;45413;-49
2023/02/03 22:31:06;;;;;;;;;6.50;6.00;;;;;12.18;61.30;103063.00;4923135;28;45363;-50
2023/02/03 22:33:32;;;;;;;;;8.50;8.25;;;;;12.18;61.32;103065.63;4909675;28;47118;-50
2023/02/03 22:35:57;;;;;;;;;8.25;7.25;;;;;12.17;60.96;103065.63;4922976;28;45344;-48
2023/02/03 22:38:22;;;;;;;;;10.50;7.50;;;;;12.15;61.07;103069.97;4922885;28;45413;-46
2023/02/03 22:40:48;;;;;;;;;7.75;7.75;;;;;12.13;61.21;103067.31;4923116;28;45295;-46
2023/02/03 22:43:13;;;;;;;;;9.00;7.75;;;;;12.11;61.45;103070.78;4922140;28;45222;-48
2023/02/03 22:45:38;;;;;;;;;8.75;8.75;;;;;12.06;61.53;103064.56;4949899;28;45278;-46
2023/02/03 22:48:04;;;;;;;;;16.75;14.50;;;;;12.09;61.54;103076.03;4961284;28;45330;-44
2023/02/03 22:50:29;;;;;;;;;9.25;8.25;;;;;12.09;61.44;103072.50;4954233;28;45279;-46
2023/02/03 22:52:55;;;;;;;;;9.00;9.00;;;;;12.05;61.38;103068.03;4961177;28;45322;-48
2023/02/03 22:55:21;;;;;;;;;11.00;8.75;;;;;12.03;61.41;103065.41;4961273;28;45309;-48
2023/02/03 22:57:48;;;;;;;;;14.00;10.50;;;;;12.04;61.15;103080.34;4933320;28;45482;-45
2023/02/03 23:00:21;;;;;;;;;16.25;11.00;;;;;12.02;61.38;103067.16;4935688;28;45393;-48
2023/02/03 23:02:46;;;;;;;;;11.00;10.75;;;;;11.97;61.52;103058.25;4960939;28;45355;-46
2023/02/03 23:05:12;;;;;;;;;13.75;12.25;;;;;12.02;61.72;103063.63;4959582;28;45405;-47
2023/02/03 23:07:38;;;;;;;;;15.50;12.75;;;;;11.96;61.67;103059.16;4948576;28;45382;-47
2023/02/03 23:10:06;;;;;;;;;11.00;10.75;;;;;11.98;61.73;103065.31;4960536;28;45584;-48
2023/02/03 23:12:32;;;;;;;;;9.50;9.50;;;;;11.98;61.80;103067.94;4943361;28;47117;-50
2023/02/03 23:14:57;;;;;;;;;12.75;12.75;;;;;11.96;61.67;103064.41;4960658;28;45286;-49
2023/02/03 23:17:22;;;;;;;;;9.50;8.50;;;;;11.95;61.86;103069.59;4961116;28;45552;-49
2023/02/03 23:19:48;;;;;;;;;11.50;11.00;;;;;11.92;61.64;103070.44;4955932;28;45461;-48
2023/02/03 23:22:13;;;;;;;;;11.25;10.25;;;;;11.92;61.86;103080.09;4958777;28;45421;-47
2023/02/03 23:24:38;;;;;;;;;14.00;12.25;;;;;11.91;61.90;103073.97;4960765;28;45240;-48
2023/02/03 23:27:04;;;;;;;;;10.75;10.75;;;;;11.94;61.73;103081.91;4961021;28;45247;-51
2023/02/03 23:29:31;;;;;;;;;10.75;10.75;;;;;11.95;61.76;103075.78;4943125;28;45549;-50
2023/02/03 23:31:57;;;;;;;;;13.00;11.50;;;;;11.94;62.02;103079.25;4955533;28;47156;-48
2023/02/03 23:37:06;;;;;;;;;14.25;11.50;;;;;11.95;61.97;103081.03;4949650;28;45440;-51
2023/02/03 23:39:31;;;;;;;;;12.00;11.00;;;;;11.96;61.73;103080.22;4959899;28;56250;-50
2023/02/03 23:41:57;;;;;;;;;7.00;7.00;;;;;11.93;61.96;103071.34;4960861;28;45283;-51
2023/02/03 23:44:23;;;;;;;;;12.00;10.25;;;;;11.93;62.07;103071.34;4960576;28;45445;-50
2023/02/03 23:46:48;;;;;;;;;12.50;11.50;;;;;11.96;61.81;103077.59;4964115;28;45274;-47
2023/02/03 23:49:14;;;;;;;;;11.25;11.25;;;;;11.95;62.08;103081.03;4963989;28;45552;-46
2023/02/03 23:51:39;;;;;;;;;11.75;10.75;;;;;11.95;62.00;103078.41;4957161;28;46457;-48
2023/02/03 23:54:04;;;;;;;;;13.75;10.50;;;;;11.94;61.83;103079.25;4963932;28;45243;-49
2023/02/03 23:56:30;;;;;;;;;10.50;10.50;;;;;11.91;62.03;103078.31;4962092;28;45737;-50
2023/02/03 23:58:55;;;;;;;;;13.25;11.75;;;;;11.92;62.11;103072.19;4958693;28;45452;-49
